Time;durP1;ratioP1;P1;durP2;ratioP2;P2;SDS_P1;SDS_P2;PMS_P1;PMS_P2;Temp;Humidity;BMP_temperature;BMP_pressure;BME280_temperature;BME280_humidity;BME280_pressure;Samples;Min_cycle;Max_cycle;Signal;HPM_P1;HPM_P2
2021/08/10 00:00:14;;;;;;;2.90;2.60;;;;;;;18.98;53.92;96895.81;5072715;28;20210;-69
2021/08/10 00:02:40;;;;;;;4.63;2.20;;;;;;;18.96;53.79;96900.50;5072342;28;20214;-69
2021/08/10 00:05:07;;;;;;;5.40;2.23;;;;;;;18.92;54.03;96897.44;5071553;28;20804;-68
2021/08/10 00:07:33;;;;;;;5.60;2.50;;;;;;;18.90;54.01;96890.72;5074073;28;20178;-68
2021/08/10 00:09:59;;;;;;;4.93;2.40;;;;;;;18.85;54.26;96897.47;5073909;28;20501;-70
2021/08/10 00:12:24;;;;;;;2.40;2.17;;;;;;;18.83;54.30;96890.75;5072825;28;20319;-69
2021/08/10 00:14:50;;;;;;;5.33;2.70;;;;;;;18.68;54.91;96897.16;5071777;28;20182;-69
2021/08/10 00:17:16;;;;;;;8.80;2.57;;;;;;;18.35;56.10;96894.63;5073511;28;20194;-69
2021/08/10 00:19:41;;;;;;;5.20;2.63;;;;;;;18.38;56.23;96892.38;5064672;28;20445;-69
2021/08/10 00:22:07;;;;;;;4.30;2.70;;;;;;;18.42;56.06;96888.28;5072228;28;20178;-69
2021/08/10 00:24:33;;;;;;;5.20;2.60;;;;;;;18.31;56.26;96896.06;5073153;28;20537;-68
2021/08/10 00:27:02;;;;;;;2.67;2.27;;;;;;;18.36;56.02;96885.66;5073179;28;20217;-68
2021/08/10 00:29:28;;;;;;;2.87;2.50;;;;;;;18.48;55.60;96891.94;5073477;28;20256;-69
2021/08/10 00:31:54;;;;;;;7.20;2.67;;;;;;;18.51;55.56;96885.38;5072472;28;20538;-68
2021/08/10 00:34:19;;;;;;;4.13;2.80;;;;;;;18.53;55.48;96886.00;5072806;28;20428;-69
2021/08/10 00:36:45;;;;;;;4.30;2.40;;;;;;;18.50;55.39;96876.63;5073299;28;20234;-68
2021/08/10 00:39:11;;;;;;;3.70;2.77;;;;;;;18.48;55.80;96886.63;5071866;28;20210;-68
2021/08/10 00:41:36;;;;;;;4.27;2.13;;;;;;;18.48;55.56;96891.09;5072858;28;20175;-69
2021/08/10 00:44:03;;;;;;;3.43;2.93;;;;;;;18.44;55.69;96890.72;5053991;28;20185;-67
2021/08/10 00:46:29;;;;;;;5.03;2.70;;;;;;;18.42;56.01;96884.81;5071735;28;20212;-68
2021/08/10 00:48:54;;;;;;;3.20;2.40;;;;;;;18.42;56.01;96887.44;5070556;28;20466;-68
2021/08/10 00:51:20;;;;;;;4.47;2.70;;;;;;;18.39;56.08;96883.38;5072770;28;20213;-70
2021/08/10 00:53:45;;;;;;;3.47;2.17;;;;;;;18.37;56.28;96880.13;5060735;28;20183;-69
2021/08/10 00:56:11;;;;;;;4.57;2.70;;;;;;;18.39;56.47;96879.94;5066623;28;20174;-69
2021/08/10 00:58:38;;;;;;;3.90;2.53;;;;;;;18.37;56.40;96879.34;5072146;28;20548;-69
2021/08/10 01:01:03;;;;;;;4.43;2.43;;;;;;;18.36;56.69;96875.03;5056124;28;20262;-68
2021/08/10 01:03:29;;;;;;;4.73;2.63;;;;;;;18.35;56.51;96876.88;5072554;28;20486;-68
2021/08/10 01:05:55;;;;;;;3.33;2.50;;;;;;;18.33;56.72;96868.34;5071633;28;20263;-70
2021/08/10 01:08:45;;;;;;;3.67;2.70;;;;;;;18.32;56.69;96879.13;5072569;28;20704;-69
2021/08/10 01:11:19;;;;;;;3.73;2.70;;;;;;;18.30;56.70;96874.06;5072396;28;20313;-69
2021/08/10 01:14:05;;;;;;;2.50;2.30;;;;;;;18.31;56.63;96877.50;5069339;28;20423;-68
2021/08/10 01:17:03;;;;;;;3.10;2.63;;;;;;;18.31;56.75;96875.69;5070140;28;20413;-68
2021/08/10 01:19:44;;;;;;;4.27;2.67;;;;;;;18.30;57.16;96874.06;5047732;28;20463;-67
2021/08/10 01:22:15;;;;;;;2.90;2.50;;;;;;;18.27;56.80;96864.66;5071453;28;20409;-69
2021/08/10 01:24:46;;;;;;;3.73;2.67;;;;;;;18.23;57.02;96867.94;5071679;28;20927;-69
2021/08/10 01:27:55;;;;;;;3.30;3.00;;;;;;;18.20;57.46;96871.81;5070600;28;20464;-68
2021/08/10 01:30:24;;;;;;;3.90;2.70;;;;;;;18.16;57.60;96870.59;5017102;28;20464;-69
2021/08/10 01:32:50;;;;;;;3.73;2.77;;;;;;;18.16;57.65;96861.84;5070558;28;20413;-69
2021/08/10 01:35:19;;;;;;;3.60;2.80;;;;;;;18.13;57.84;96870.22;5069453;28;20452;-68
2021/08/10 01:37:50;;;;;;;5.80;3.27;;;;;;;18.09;57.99;96860.03;5070375;28;20428;-69
2021/08/10 01:40:16;;;;;;;3.53;2.80;;;;;;;18.07;58.38;96871.88;5069701;28;20441;-70
2021/08/10 01:42:41;;;;;;;4.10;2.87;;;;;;;18.07;58.21;96861.25;5070685;28;20481;-69
2021/08/10 01:45:08;;;;;;;3.50;2.70;;;;;;;18.06;58.60;96859.63;5068743;28;20429;-69
2021/08/10 01:47:34;;;;;;;4.13;3.00;;;;;;;18.06;58.53;96852.50;5070391;28;20197;-69
2021/08/10 01:50:02;;;;;;;3.00;2.70;;;;;;;17.99;58.60;96851.69;5071415;28;20444;-69
2021/08/10 01:52:28;;;;;;;4.90;3.13;;;;;;;17.92;59.03;96850.88;5071134;28;20436;-69
2021/08/10 01:54:54;;;;;;;5.80;3.33;;;;;;;17.88;59.27;96850.50;5070910;28;20535;-70
2021/08/10 01:57:20;;;;;;;4.93;3.23;;;;;;;17.93;59.19;96853.31;5071229;28;20220;-68
2021/08/10 01:59:49;;;;;;;6.40;3.33;;;;;;;17.97;59.01;96859.03;5070752;28;20809;-70
2021/08/10 02:02:15;;;;;;;5.20;3.40;;;;;;;17.99;59.30;96856.19;5063818;28;20512;-69
2021/08/10 02:04:42;;;;;;;5.50;3.30;;;;;;;18.03;59.27;96846.78;5071350;28;20499;-68
2021/08/10 02:07:07;;;;;;;5.07;3.00;;;;;;;17.98;59.44;96849.25;5069852;28;20170;-69
2021/08/10 02:09:33;;;;;;;3.83;3.00;;;;;;;17.95;59.55;96843.31;5071412;28;20797;-68
2021/08/10 02:12:01;;;;;;;3.57;2.80;;;;;;;17.97;59.55;96845.78;5061612;28;20579;-70
2021/08/10 02:14:27;;;;;;;3.50;2.63;;;;;;;17.95;59.50;96842.53;5067985;28;20548;-68
2021/08/10 02:16:56;;;;;;;5.10;3.40;;;;;;;17.89;59.92;96852.13;5070199;28;20413;-70
2021/08/10 02:19:21;;;;;;;4.37;2.90;;;;;;;17.85;60.05;96840.28;5060595;28;20559;-69
2021/08/10 02:21:49;;;;;;;4.17;2.70;;;;;;;17.87;60.01;96837.41;5071455;28;20424;-69
2021/08/10 02:24:24;;;;;;;3.47;2.97;;;;;;;17.87;60.21;96837.41;5071097;28;20181;-69
2021/08/10 02:26:56;;;;;;;3.40;2.60;;;;;;;17.77;60.66;96832.53;5069778;28;20990;-70
2021/08/10 02:29:24;;;;;;;3.90;3.00;;;;;;;17.61;61.19;96831.16;5071183;28;20455;-68
2021/08/10 02:31:50;;;;;;;27.20;11.00;;;;;;;17.78;60.49;96831.53;5052138;28;20536;-69
2021/08/10 02:34:16;;;;;;;7.20;3.77;;;;;;;17.71;60.56;96834.19;5069717;28;20428;-67
2021/08/10 02:36:42;;;;;;;4.53;3.20;;;;;;;17.64;61.39;96841.34;5069400;28;21046;-69
2021/08/10 02:39:08;;;;;;;4.30;2.80;;;;;;;17.53;61.66;96853.38;5069043;28;20665;-71
2021/08/10 02:41:36;;;;;;;5.43;3.30;;;;;;;17.58;61.75;96845.63;5071111;28;20166;-69
2021/08/10 02:44:02;;;;;;;51.93;14.13;;;;;;;17.56;61.81;96841.56;5069398;28;20417;-69
2021/08/10 02:46:29;;;;;;;29.33;8.10;;;;;;;17.51;61.99;96839.53;5070331;28;20445;-70
2021/08/10 02:48:54;;;;;;;28.43;8.40;;;;;;;17.63;61.77;96837.91;5070349;28;20427;-70
2021/08/10 02:51:20;;;;;;;10.50;4.17;;;;;;;17.64;61.50;96849.28;5070895;28;20448;-67
2021/08/10 02:53:45;;;;;;;7.60;2.97;;;;;;;17.60;61.26;96843.59;5070784;28;20178;-68
2021/08/10 02:56:33;;;;;;;4.57;3.17;;;;;;;17.76;60.85;96846.84;5070298;28;20182;-68
2021/08/10 02:59:06;;;;;;;4.70;2.83;;;;;;;17.80;60.73;96837.44;5069434;28;20646;-70
2021/08/10 03:01:34;;;;;;;4.80;2.90;;;;;;;17.80;60.60;96843.56;5061667;28;20475;-69
2021/08/10 03:04:01;;;;;;;4.50;2.80;;;;;;;17.73;60.80;96847.25;5063274;28;20420;-69
2021/08/10 03:06:29;;;;;;;5.53;2.90;;;;;;;17.79;60.73;96851.72;5069037;28;20428;-68
2021/08/10 03:08:59;;;;;;;4.33;2.50;;;;;;;17.79;60.64;96841.09;5068916;28;20782;-68
2021/08/10 03:11:27;;;;;;;4.13;2.77;;;;;;;17.72;60.93;96840.31;5070609;28;20453;-70
2021/08/10 03:13:53;;;;;;;6.97;3.57;;;;;;;17.70;60.86;96843.19;5067470;28;20405;-69
2021/08/10 03:16:20;;;;;;;3.87;2.53;;;;;;;17.76;60.71;96841.53;5070334;28;20439;-68
2021/08/10 03:18:48;;;;;;;5.17;4.67;;;;;;;17.63;60.90;96843.19;5063821;28;20421;-69
2021/08/10 03:21:14;;;;;;;7.23;4.30;;;;;;;17.53;61.46;96845.44;5067761;28;20571;-68
2021/08/10 03:23:40;;;;;;;15.60;4.13;;;;;;;17.17;62.91;96849.31;5070092;28;20408;-69
2021/08/10 03:26:08;;;;;;;7.03;3.77;;;;;;;17.16;62.97;96847.69;5066542;28;20515;-69
2021/08/10 03:28:38;;;;;;;3.83;2.77;;;;;;;17.20;63.00;96843.63;5078002;28;20432;-67
2021/08/10 03:31:04;;;;;;;3.10;2.53;;;;;;;17.35;62.43;96846.88;5045958;28;20529;-68
2021/08/10 03:33:30;;;;;;;7.43;3.27;;;;;;;17.35;62.38;96849.53;5078302;28;20425;-69
2021/08/10 03:35:56;;;;;;;8.83;3.53;;;;;;;17.29;62.55;96847.69;5047550;28;20184;-69
2021/08/10 03:38:23;;;;;;;6.97;4.00;;;;;;;17.18;63.01;96850.94;5056858;28;20223;-69
2021/08/10 03:40:49;;;;;;;6.83;3.60;;;;;;;17.20;62.92;96849.72;5053476;28;20437;-68
2021/08/10 03:43:16;;;;;;;7.77;3.07;;;;;;;17.16;63.10;96845.03;5062889;28;20425;-68
2021/08/10 03:45:42;;;;;;;4.93;3.37;;;;;;;17.10;63.53;96846.66;5062814;28;20464;-69
2021/08/10 03:48:08;;;;;;;3.50;3.00;;;;;;;17.27;62.40;96849.72;5063698;28;20418;-70
2021/08/10 03:50:34;;;;;;;8.03;3.10;;;;;;;17.37;62.24;96851.97;5049314;28;20976;-69
2021/08/10 03:53:00;;;;;;;3.60;3.27;;;;;;;17.38;62.34;96842.19;5059258;28;20792;-70
2021/08/10 03:55:26;;;;;;;4.10;3.17;;;;;;;17.41;62.07;96850.53;5048242;28;20501;-70
2021/08/10 03:57:52;;;;;;;4.00;3.03;;;;;;;17.39;61.93;96843.84;5053629;28;20179;-69
2021/08/10 04:00:18;;;;;;;9.17;4.43;;;;;;;17.43;61.85;96837.09;5060707;28;20256;-69
2021/08/10 04:02:43;;;;;;;35.43;9.30;;;;;;;17.26;62.48;96837.53;5055691;28;20421;-69
2021/08/10 04:05:09;;;;;;;24.30;8.27;;;;;;;17.21;62.88;96842.59;5053605;28;20653;-71
2021/08/10 04:07:35;;;;;;;4.67;3.40;;;;;;;17.30;62.48;96838.72;5053713;28;20171;-70
2021/08/10 04:10:02;;;;;;;3.33;3.00;;;;;;;17.32;62.39;96839.34;5056169;28;20202;-68
2021/08/10 04:12:28;;;;;;;4.87;3.10;;;;;;;17.35;62.42;96841.59;5052724;28;20465;-68
2021/08/10 04:14:54;;;;;;;6.13;3.20;;;;;;;17.29;62.50;96850.34;5053464;28;20417;-70
2021/08/10 04:17:23;;;;;;;4.10;2.90;;;;;;;17.39;62.16;96847.28;5052077;28;20559;-69
2021/08/10 04:19:49;;;;;;;8.33;3.30;;;;;;;17.49;62.07;96849.53;5043953;28;20191;-67
2021/08/10 04:22:16;;;;;;;8.47;3.30;;;;;;;17.61;61.72;96850.53;5052115;28;20425;-68
2021/08/10 04:24:41;;;;;;;3.40;3.10;;;;;;;17.74;61.37;96851.53;5053387;28;20442;-69
2021/08/10 04:27:07;;;;;;;4.17;2.90;;;;;;;17.87;60.94;96853.31;5053042;28;20453;-68
2021/08/10 04:29:33;;;;;;;4.87;2.80;;;;;;;17.91;61.02;96851.91;5053388;28;20278;-68
2021/08/10 04:31:58;;;;;;;5.63;3.00;;;;;;;18.01;60.94;96860.25;5060407;28;20689;-70
2021/08/10 04:34:24;;;;;;;4.73;3.23;;;;;;;18.10;60.56;96861.66;5052844;28;20183;-71
2021/08/10 04:36:50;;;;;;;3.63;3.03;;;;;;;18.19;60.27;96856.13;5048224;28;20179;-68
2021/08/10 04:39:15;;;;;;;5.87;3.33;;;;;;;18.26;60.15;96863.06;5052945;28;20245;-68
2021/08/10 04:41:41;;;;;;;3.40;3.07;;;;;;;18.32;59.91;96871.19;5051900;28;20172;-69
2021/08/10 04:44:07;;;;;;;5.67;3.17;;;;;;;18.36;59.84;96864.44;5052540;28;20202;-70
2021/08/10 04:46:33;;;;;;;4.47;3.00;;;;;;;18.29;60.16;96874.25;5052969;28;20186;-68
2021/08/10 04:48:59;;;;;;;5.50;3.37;;;;;;;18.23;60.28;96879.38;5052667;28;20763;-69
2021/08/10 04:51:25;;;;;;;3.77;3.10;;;;;;;18.22;60.13;96872.44;5052221;28;20493;-68
2021/08/10 04:53:50;;;;;;;3.30;3.00;;;;;;;18.33;59.93;96878.94;5052064;28;20240;-69
2021/08/10 04:56:16;;;;;;;4.17;2.90;;;;;;;18.33;59.83;96878.09;5052598;28;20917;-68
2021/08/10 04:58:42;;;;;;;8.37;3.23;;;;;;;18.44;59.73;96868.69;5052721;28;20244;-69
2021/08/10 05:01:07;;;;;;;6.40;3.10;;;;;;;18.58;59.27;96871.06;5051403;28;20198;-70
2021/08/10 05:03:33;;;;;;;2.90;2.53;;;;;;;18.71;58.76;96872.03;5052215;28;20783;-68
2021/08/10 05:05:59;;;;;;;5.97;3.07;;;;;;;18.71;58.84;96862.19;5048395;28;20176;-70
2021/08/10 05:08:24;;;;;;;3.50;2.57;;;;;;;18.80;58.48;96865.44;5051449;28;20507;-69
2021/08/10 05:10:51;;;;;;;7.17;2.67;;;;;;;18.90;58.20;96874.78;5052167;28;20578;-70
2021/08/10 05:13:17;;;;;;;6.63;2.90;;;;;;;18.71;58.76;96879.97;5051591;28;20175;-69
2021/08/10 05:15:42;;;;;;;9.13;3.23;;;;;;;18.80;58.61;96878.69;5052650;28;20497;-69
2021/08/10 05:18:08;;;;;;;3.70;2.77;;;;;;;19.05;57.94;96875.31;5050995;28;20233;-69
2021/08/10 05:20:34;;;;;;;4.13;2.97;;;;;;;19.19;57.48;96873.41;5052296;28;20215;-68
2021/08/10 05:23:00;;;;;;;3.50;2.60;;;;;;;19.33;57.28;96872.28;5051267;28;20794;-69
2021/08/10 05:25:26;;;;;;;4.30;2.87;;;;;;;19.45;56.95;96875.03;5055432;28;20183;-69
2021/08/10 05:27:51;;;;;;;4.90;3.00;;;;;;;19.53;56.45;96878.47;5057212;28;20440;-70
2021/08/10 05:30:17;;;;;;;5.47;3.20;;;;;;;19.49;56.05;96886.03;5059150;28;20227;-69
2021/08/10 05:32:42;;;;;;;4.50;2.87;;;;;;;19.40;55.86;96893.47;5052106;28;20328;-69
2021/08/10 05:35:08;;;;;;;10.23;4.63;;;;;;;19.40;56.05;96901.44;5047711;28;20179;-69
2021/08/10 05:37:34;;;;;;;10.63;4.37;;;;;;;19.47;55.38;96893.41;5051344;28;20206;-69
2021/08/10 05:40:01;;;;;;;5.83;3.47;;;;;;;19.52;54.81;96893.56;5051994;28;20940;-69
2021/08/10 05:42:27;;;;;;;5.57;3.17;;;;;;;19.65;53.96;96901.44;5051880;28;20254;-68
2021/08/10 05:44:52;;;;;;;9.77;4.10;;;;;;;19.68;54.13;96896.72;5058147;28;20508;-70
2021/08/10 05:47:18;;;;;;;6.80;3.23;;;;;;;19.70;54.02;96892.81;5054038;28;20187;-69
2021/08/10 05:49:43;;;;;;;19.53;6.53;;;;;;;19.91;53.50;96901.47;5071298;28;20539;-69
2021/08/10 05:52:09;;;;;;;4.53;2.77;;;;;;;19.83;53.63;96888.41;5063532;28;20252;-69
2021/08/10 05:54:35;;;;;;;6.30;3.00;;;;;;;19.93;53.55;96899.38;5069975;28;20182;-70
2021/08/10 05:57:02;;;;;;;9.10;3.27;;;;;;;20.14;53.16;96892.00;5070989;28;20185;-70
2021/08/10 05:59:27;;;;;;;3.00;2.40;;;;;;;20.21;52.45;96892.75;5063337;28;20950;-70
2021/08/10 06:01:53;;;;;;;11.10;3.53;;;;;;;20.16;52.66;96889.94;5071343;28;20408;-69
2021/08/10 06:04:18;;;;;;;3.93;2.63;;;;;;;19.72;53.53;96893.41;5053782;28;20207;-68
2021/08/10 06:06:44;;;;;;;4.67;2.70;;;;;;;20.24;52.40;96893.09;5071318;28;20174;-69
2021/08/10 06:09:09;;;;;;;6.47;2.97;;;;;;;20.17;52.57;96896.88;5071423;28;20261;-70
2021/08/10 06:11:36;;;;;;;4.20;2.60;;;;;;;20.24;51.85;96897.63;5069539;28;20214;-68
2021/08/10 06:14:02;;;;;;;4.83;2.90;;;;;;;20.15;52.17;96890.97;5070808;28;20653;-69
2021/08/10 06:16:28;;;;;;;7.30;3.07;;;;;;;20.30;51.78;96888.75;5057934;28;20405;-70
2021/08/10 06:18:53;;;;;;;3.10;2.40;;;;;;;20.32;51.61;96891.19;5064457;28;20406;-68
2021/08/10 06:21:19;;;;;;;6.53;2.57;;;;;;;20.53;51.04;96885.41;5068438;28;20699;-68
2021/08/10 06:23:45;;;;;;;3.80;2.33;;;;;;;20.38;51.45;96888.47;5070144;28;20642;-69
2021/08/10 06:26:11;;;;;;;2.60;2.23;;;;;;;20.66;50.71;96886.28;5071051;28;20420;-69
2021/08/10 06:28:36;;;;;;;3.77;2.50;;;;;;;20.78;50.63;96891.69;5070966;28;20265;-68
2021/08/10 06:31:03;;;;;;;4.20;2.90;;;;;;;20.84;50.65;96888.09;5070592;28;20821;-69
2021/08/10 06:33:29;;;;;;;4.50;2.80;;;;;;;20.93;50.54;96888.59;5054173;28;20178;-70
2021/08/10 06:35:55;;;;;;;3.57;2.53;;;;;;;20.71;51.21;96894.41;5069740;28;20542;-69
2021/08/10 06:38:21;;;;;;;7.90;2.93;;;;;;;21.09;50.25;96897.81;5070159;28;20432;-70
2021/08/10 06:40:46;;;;;;;5.40;2.57;;;;;;;21.15;50.44;96903.03;5070716;28;20244;-68
2021/08/10 06:43:12;;;;;;;2.60;2.37;;;;;;;21.36;49.99;96902.75;5069250;28;20205;-69
2021/08/10 06:45:37;;;;;;;4.27;2.40;;;;;;;21.54;49.99;96896.50;5064729;28;20172;-68
2021/08/10 06:48:04;;;;;;;4.50;2.47;;;;;;;21.39;49.74;96896.97;5063679;28;20186;-68
2021/08/10 06:50:29;;;;;;;3.27;2.93;;;;;;;21.42;49.39;96889.31;5070649;28;20190;-68
2021/08/10 06:52:55;;;;;;;4.57;2.40;;;;;;;21.98;48.50;96888.19;5069001;28;20424;-68
2021/08/10 06:55:21;;;;;;;3.77;2.47;;;;;;;22.09;48.63;96887.38;5068819;28;20206;-70
2021/08/10 06:57:46;;;;;;;4.93;3.23;;;;;;;22.49;47.83;96880.50;5034980;28;20236;-68
2021/08/10 07:00:12;;;;;;;3.80;2.57;;;;;;;22.80;46.80;96883.72;5069238;28;20214;-68
2021/08/10 07:02:38;;;;;;;3.83;2.07;;;;;;;23.08;46.16;96882.91;5070838;28;20281;-68
2021/08/10 07:05:04;;;;;;;4.67;2.47;;;;;;;23.34;45.18;96879.88;5070395;28;20443;-68
2021/08/10 07:07:29;;;;;;;2.97;1.90;;;;;;;23.57;44.68;96882.41;5069194;28;20186;-70
2021/08/10 07:09:55;;;;;;;4.13;2.10;;;;;;;23.86;43.79;96887.66;5070637;28;20206;-70
2021/08/10 07:12:21;;;;;;;4.43;2.27;;;;;;;24.05;43.67;96877.50;5069935;28;20202;-69
2021/08/10 07:14:46;;;;;;;3.80;2.77;;;;;;;24.41;43.35;96879.00;5060800;28;20178;-68
2021/08/10 07:17:12;;;;;;;3.37;2.20;;;;;;;24.71;42.52;96877.75;5057355;28;20186;-68
2021/08/10 07:19:37;;;;;;;3.40;2.50;;;;;;;24.11;43.85;96877.56;5062440;28;20202;-69
2021/08/10 07:22:03;;;;;;;2.90;2.17;;;;;;;24.50;42.80;96878.31;5069053;28;20265;-68
2021/08/10 07:24:28;;;;;;;2.17;1.97;;;;;;;24.90;42.24;96876.38;5070663;28;20186;-68
2021/08/10 07:26:54;;;;;;;6.57;2.40;;;;;;;24.97;42.33;96866.22;5070806;28;20709;-68
2021/08/10 07:29:20;;;;;;;5.00;2.40;;;;;;;24.96;42.52;96875.34;5070182;28;20205;-68
2021/08/10 07:31:45;;;;;;;4.00;2.20;;;;;;;24.74;42.76;96869.22;5070058;28;20209;-68
2021/08/10 07:34:11;;;;;;;3.23;2.03;;;;;;;24.50;43.61;96866.78;5072819;28;20289;-68
2021/08/10 07:36:37;;;;;;;3.93;2.03;;;;;;;24.41;44.40;96857.59;5074678;28;20604;-68
2021/08/10 07:39:03;;;;;;;6.50;2.70;;;;;;;24.18;44.10;96864.81;5073849;28;20200;-69
2021/08/10 07:41:29;;;;;;;3.63;2.10;;;;;;;23.86;44.38;96868.09;5066680;28;20172;-69
2021/08/10 07:43:55;;;;;;;3.20;2.17;;;;;;;24.14;43.26;96859.13;5063448;28;20787;-70
2021/08/10 07:46:21;;;;;;;4.37;2.13;;;;;;;24.01;43.35;96865.66;5061110;28;20184;-68
2021/08/10 07:48:47;;;;;;;4.97;2.07;;;;;;;24.29;42.46;96855.84;5072571;28;20210;-69
2021/08/10 07:51:12;;;;;;;5.63;2.33;;;;;;;24.39;42.92;96855.97;5072170;28;20468;-68
2021/08/10 07:53:38;;;;;;;4.60;2.20;;;;;;;24.59;42.88;96851.88;5073717;28;20186;-68
2021/08/10 07:56:04;;;;;;;5.70;3.20;;;;;;;24.92;41.99;96855.47;5073907;28;20220;-68
2021/08/10 07:58:30;;;;;;;1.90;1.70;;;;;;;25.26;42.19;96863.28;5073790;28;20630;-68
2021/08/10 08:00:56;;;;;;;5.07;2.43;;;;;;;25.56;41.49;96853.06;5073792;28;20452;-69
2021/08/10 08:03:22;;;;;;;5.40;2.10;;;;;;;25.30;41.87;96851.00;5069604;28;20183;-68
2021/08/10 08:05:48;;;;;;;5.57;2.30;;;;;;;24.86;43.22;96842.28;5074065;28;20178;-68
2021/08/10 08:08:14;;;;;;;2.27;2.07;;;;;;;24.93;44.55;96843.69;5071899;28;20424;-70
2021/08/10 08:10:39;;;;;;;11.97;2.40;;;;;;;25.32;43.89;96845.34;5073652;28;20218;-67
2021/08/10 08:13:05;;;;;;;4.80;2.50;;;;;;;25.70;42.90;96845.41;5057524;28;20252;-69
2021/08/10 08:15:32;;;;;;;4.20;2.17;;;;;;;25.81;42.26;96847.06;5070013;28;20193;-69
2021/08/10 08:17:58;;;;;;;4.00;2.40;;;;;;;25.53;43.30;96841.00;5065457;28;20182;-70
2021/08/10 08:20:24;;;;;;;4.47;2.60;;;;;;;25.89;42.88;96833.16;5065051;28;20459;-67
2021/08/10 08:22:49;;;;;;;4.67;2.30;;;;;;;26.15;42.44;96832.50;5073519;28;20179;-69
2021/08/10 08:25:15;;;;;;;2.97;2.50;;;;;;;25.93;43.40;96836.13;5071691;28;20292;-69
2021/08/10 08:27:40;;;;;;;4.43;2.13;;;;;;;26.06;42.10;96835.66;5072393;28;20182;-69
2021/08/10 08:30:07;;;;;;;6.43;2.10;;;;;;;25.81;42.99;96833.66;5071465;28;20215;-68
2021/08/10 08:32:33;;;;;;;4.20;2.10;;;;;;;25.75;43.30;96832.81;5049869;28;20211;-68
2021/08/10 08:34:58;;;;;;;3.00;2.23;;;;;;;25.39;44.17;96837.09;5065181;28;20431;-68
2021/08/10 08:37:24;;;;;;;2.43;2.23;;;;;;;25.36;44.26;96834.91;5055010;28;20186;-68
2021/08/10 08:39:50;;;;;;;5.20;2.40;;;;;;;25.54;43.71;96826.50;5072981;28;20202;-70
2021/08/10 08:42:15;;;;;;;2.90;2.00;;;;;;;25.62;42.38;96838.63;5071001;28;20182;-69
2021/08/10 08:44:42;;;;;;;3.63;2.17;;;;;;;25.54;42.57;96834.56;5071643;28;20214;-69
2021/08/10 08:47:09;;;;;;;2.60;1.80;;;;;;;25.52;42.17;96835.91;5059799;28;20459;-68
2021/08/10 08:49:36;;;;;;;6.33;3.70;;;;;;;25.72;41.93;96837.88;5072851;28;20230;-67
2021/08/10 08:52:04;;;;;;;5.47;3.60;;;;;;;25.80;41.67;96834.72;5072660;28;20457;-68
2021/08/10 08:54:31;;;;;;;3.20;2.43;;;;;;;26.31;40.43;96825.31;5072579;28;20427;-68
2021/08/10 08:56:57;;;;;;;5.73;2.20;;;;;;;26.70;40.35;96835.63;5072487;28;20508;-68
2021/08/10 08:59:24;;;;;;;3.97;2.30;;;;;;;26.63;40.45;96832.38;5072590;28;21042;-68
2021/08/10 09:01:51;;;;;;;2.20;1.63;;;;;;;26.23;38.83;96842.75;5071209;28;20244;-67
2021/08/10 09:04:17;;;;;;;3.33;1.80;;;;;;;26.61;38.82;96837.22;5071508;28;20428;-69
2021/08/10 09:06:42;;;;;;;6.93;2.00;;;;;;;26.92;37.93;96853.44;5071179;28;20830;-66
2021/08/10 09:09:21;;;;;;;2.80;2.03;;;;;;;26.10;40.44;96860.13;5072457;28;20767;-69
2021/08/10 09:11:51;;;;;;;2.60;1.70;;;;;;;26.78;38.42;96859.31;5072602;28;20206;-67
2021/08/10 09:14:18;;;;;;;2.70;1.77;;;;;;;27.18;38.17;96856.94;5068002;28;20467;-69
2021/08/10 09:17:07;;;;;;;2.97;2.20;;;;;;;27.29;37.93;96855.88;5047725;28;20433;-71
2021/08/10 09:19:42;;;;;;;2.33;2.10;;;;;;;27.50;37.69;96852.41;5061929;28;20805;-68
2021/08/10 09:22:35;;;;;;;3.50;1.93;;;;;;;27.46;37.79;96859.41;5055478;28;20788;-69
2021/08/10 09:25:03;;;;;;;3.10;2.00;;;;;;;27.65;37.95;96865.84;5070833;28;20448;-67
2021/08/10 09:27:37;;;;;;;2.43;2.00;;;;;;;27.20;38.36;96860.19;5071858;28;20437;-68
2021/08/10 09:30:23;;;;;;;6.60;2.00;;;;;;;27.38;38.12;96856.13;5071468;28;20436;-68
2021/08/10 09:32:52;;;;;;;2.30;1.73;;;;;;;26.68;36.20;96860.06;5054550;28;20790;-65
2021/08/10 09:35:20;;;;;;;3.70;1.63;;;;;;;25.96;37.43;96864.34;5069815;28;20431;-67
2021/08/10 09:38:10;;;;;;;2.80;1.47;;;;;;;26.37;36.50;96859.16;5070774;28;20471;-67
2021/08/10 09:40:59;;;;;;;4.50;1.67;;;;;;;25.71;36.55;96857.72;5056889;28;20444;-68
2021/08/10 09:43:35;;;;;;;2.53;1.60;;;;;;;25.54;37.43;96866.75;5071387;28;20417;-68
2021/08/10 09:46:12;;;;;;;3.13;1.70;;;;;;;25.54;37.14;96864.06;5059491;28;20422;-67
2021/08/10 09:48:39;;;;;;;2.00;1.80;;;;;;;25.63;37.44;96855.53;5058122;28;20421;-68
2021/08/10 09:51:19;;;;;;;5.40;1.60;;;;;;;25.84;36.99;96861.84;5071238;28;20964;-69
2021/08/10 09:53:59;;;;;;;3.97;1.67;;;;;;;25.05;38.77;96869.53;5062507;28;20466;-67
2021/08/10 09:56:53;;;;;;;3.50;1.70;;;;;;;26.16;37.08;96869.00;5066273;28;20430;-69
2021/08/10 09:59:44;;;;;;;2.57;1.60;;;;;;;26.36;36.53;96873.66;5073947;28;20436;-69
2021/08/10 10:02:18;;;;;;;2.53;1.60;;;;;;;27.14;35.01;96875.50;5074538;28;20425;-71
2021/08/10 10:04:50;;;;;;;4.53;2.50;;;;;;;26.18;36.71;96872.25;5075809;28;20508;-70
2021/08/10 10:07:16;;;;;;;3.30;2.30;;;;;;;25.64;37.94;96879.44;5076509;28;20436;-69
2021/08/10 10:09:42;;;;;;;8.90;2.13;;;;;;;25.52;37.91;96871.56;5075552;28;20872;-69
2021/08/10 10:12:08;;;;;;;6.63;1.80;;;;;;;24.86;38.96;96872.56;5075220;28;20594;-69
2021/08/10 10:14:34;;;;;;;3.00;1.70;;;;;;;25.47;38.16;96876.88;5067036;28;20184;-69
2021/08/10 10:17:00;;;;;;;4.10;2.03;;;;;;;25.81;38.21;96868.53;5055701;28;20424;-69
2021/08/10 10:19:27;;;;;;;9.03;2.17;;;;;;;26.19;37.62;96868.50;5067467;28;20680;-68
2021/08/10 10:21:55;;;;;;;5.13;1.93;;;;;;;26.47;37.42;96853.81;5078089;28;20237;-68
2021/08/10 10:24:22;;;;;;;3.93;1.70;;;;;;;26.36;37.87;96874.50;5076824;28;20432;-69
2021/08/10 10:26:53;;;;;;;7.67;2.37;;;;;;;26.75;36.80;96862.50;5069949;28;20494;-69
2021/08/10 10:29:19;;;;;;;4.77;2.30;;;;;;;26.43;38.46;96866.19;5075068;28;20432;-67
2021/08/10 10:31:45;;;;;;;5.60;2.80;;;;;;;26.54;38.50;96869.69;5075500;28;21021;-67
2021/08/10 10:34:14;;;;;;;3.03;2.23;;;;;;;27.25;37.13;96864.75;5075852;28;20182;-67
2021/08/10 10:36:45;;;;;;;2.83;2.40;;;;;;;26.55;38.84;96859.78;5075632;28;20182;-69
2021/08/10 10:39:13;;;;;;;7.10;2.70;;;;;;;26.52;38.81;96859.22;5075574;28;20513;-70
2021/08/10 10:41:39;;;;;;;6.47;3.20;;;;;;;26.81;38.45;96860.66;5076720;28;20447;-68
2021/08/10 10:44:09;;;;;;;5.60;2.17;;;;;;;26.87;38.48;96856.94;5074081;28;20444;-70
2021/08/10 10:46:37;;;;;;;4.87;2.37;;;;;;;26.68;38.59;96860.06;5059121;28;20504;-69
2021/08/10 10:49:04;;;;;;;4.17;2.10;;;;;;;27.83;36.33;96850.22;5072026;28;20420;-68
2021/08/10 10:51:38;;;;;;;8.73;2.10;;;;;;;27.85;36.59;96845.38;5072523;28;20459;-70
2021/08/10 10:54:27;;;;;;;4.87;2.37;;;;;;;27.56;36.92;96852.13;5075335;28;20428;-70
2021/08/10 10:56:58;;;;;;;3.70;2.30;;;;;;;27.02;37.95;96849.97;5077221;28;20912;-69
2021/08/10 10:59:27;;;;;;;4.37;2.20;;;;;;;26.88;37.86;96852.34;5058271;28;20487;-69
2021/08/10 11:02:19;;;;;;;3.80;2.40;;;;;;;27.58;36.84;96846.50;5074947;28;20443;-69
2021/08/10 11:05:06;;;;;;;7.37;2.40;;;;;;;27.61;36.57;96853.19;5052777;28;20434;-67
2021/08/10 11:07:36;;;;;;;6.23;2.00;;;;;;;27.24;36.59;96852.38;5060676;28;20500;-68
2021/08/10 11:10:12;;;;;;;2.33;2.00;;;;;;;27.40;36.36;96851.31;5063780;28;20505;-68
2021/08/10 11:12:42;;;;;;;3.87;1.77;;;;;;;27.42;36.11;96849.16;5056039;28;20452;-68
2021/08/10 11:15:16;;;;;;;3.47;2.00;;;;;;;27.54;37.04;96845.41;5070726;28;20804;-69
2021/08/10 11:18:07;;;;;;;3.27;2.27;;;;;;;26.61;39.22;96846.09;5058544;28;20885;-67
2021/08/10 11:20:35;;;;;;;8.23;2.20;;;;;;;27.05;38.71;96847.53;5054494;28;20519;-68
2021/08/10 11:23:23;;;;;;;56.13;27.53;;;;;;;26.60;39.62;96852.53;5070774;28;20478;-67
2021/08/10 11:25:58;;;;;;;4.90;2.50;;;;;;;26.14;40.45;96855.06;5070587;28;20470;-68
2021/08/10 11:28:25;;;;;;;63.90;22.43;;;;;;;26.51;40.04;96844.19;5069302;28;20424;-67
2021/08/10 11:30:51;;;;;;;10.03;5.40;;;;;;;26.93;38.68;96849.69;5069908;28;20456;-70
2021/08/10 11:33:35;;;;;;;9.63;5.23;;;;;;;26.73;39.34;96851.22;5069946;28;20900;-69
2021/08/10 11:36:09;;;;;;;5.27;2.63;;;;;;;26.53;39.86;96844.72;5070699;28;20189;-68